createdAt,value
2022-08-25T00:00:35.972Z,17.33
2022-08-25T00:05:39.604Z,17.63
2022-08-25T00:10:42.765Z,16.73
2022-08-25T00:15:46.842Z,18.47
2022-08-25T00:20:50.176Z,14.10
2022-08-25T00:25:52.769Z,19.52
2022-08-25T00:30:55.372Z,13.60
2022-08-25T00:35:58.499Z,14.82
2022-08-25T00:41:06.869Z,16.30
2022-08-25T00:46:10.074Z,17.57
2022-08-25T00:51:19.758Z,15.88
2022-08-25T00:56:22.433Z,13.50
2022-08-25T01:01:25.320Z,15.93
2022-08-25T01:06:29.282Z,15.45
2022-08-25T01:11:31.872Z,14.77
2022-08-25T01:16:38.616Z,17.80
2022-08-25T01:21:45.400Z,18.05
2022-08-25T01:26:48.186Z,13.43
2022-08-25T01:31:58.669Z,16.23
2022-08-25T01:37:01.377Z,13.13
2022-08-25T01:42:06.918Z,13.73
2022-08-25T01:47:09.881Z,13.10
2022-08-25T01:52:35.244Z,11.57
2022-08-25T01:57:38.049Z,12.77
2022-08-25T02:02:42.637Z,12.27
2022-08-25T02:07:45.523Z,14.05
2022-08-25T02:12:48.038Z,12.93
2022-08-25T02:17:50.637Z,12.43
2022-08-25T02:22:56.920Z,12.00
2022-08-25T02:28:00.156Z,11.87
2022-08-25T02:33:04.468Z,13.67
2022-08-25T02:38:07.444Z,10.32
2022-08-25T02:43:10.103Z,15.17
2022-08-25T02:48:12.745Z,15.23
2022-08-25T02:53:15.413Z,11.65
2022-08-25T02:58:17.999Z,12.47
2022-08-25T03:03:21.661Z,11.20
2022-08-25T03:08:25.256Z,12.93
2022-08-25T03:13:27.810Z,13.80
2022-08-25T03:18:30.794Z,16.03
2022-08-25T03:23:33.445Z,12.95
2022-08-25T03:28:36.578Z,16.13
2022-08-25T03:33:39.138Z,15.37
2022-08-25T03:38:42.229Z,17.05
2022-08-25T03:43:44.786Z,17.40
2022-08-25T03:48:51.296Z,16.97
2022-08-25T03:53:54.127Z,13.95
2022-08-25T03:58:57.220Z,16.67
2022-08-25T04:04:00.595Z,14.80
2022-08-25T04:09:03.189Z,17.30
2022-08-25T04:14:05.962Z,16.03
2022-08-25T04:19:09.740Z,25.60
2022-08-25T04:24:13.814Z,20.25
2022-08-25T04:29:18.935Z,18.08
2022-08-25T04:34:30.131Z,19.23
2022-08-25T04:39:34.055Z,14.88
2022-08-25T04:44:45.719Z,17.60
2022-08-25T04:49:51.663Z,19.50
2022-08-25T04:54:54.392Z,13.50
2022-08-25T04:59:59.480Z,16.53
2022-08-25T05:05:04.239Z,14.93
2022-08-25T05:10:07.642Z,13.50
2022-08-25T05:15:29.564Z,18.10
2022-08-25T05:20:33.883Z,13.60
2022-08-25T05:25:37.319Z,11.70
2022-08-25T05:30:41.672Z,13.70
2022-08-25T05:35:45.240Z,13.83
2022-08-25T05:40:48.092Z,12.15
2022-08-25T05:45:50.674Z,13.53
2022-08-25T05:50:58.313Z,13.53
2022-08-25T05:56:01.816Z,12.55
2022-08-25T06:01:23.698Z,11.43
2022-08-25T06:06:26.550Z,10.23
2022-08-25T06:11:29.064Z,10.48
2022-08-25T06:16:31.938Z,11.80
2022-08-25T06:21:34.808Z,15.13
2022-08-25T06:26:38.024Z,20.75
2022-08-25T06:31:42.396Z,23.07
2022-08-25T06:36:45.263Z,26.90
2022-08-25T06:41:56.619Z,26.27
2022-08-25T06:46:59.195Z,24.80
2022-08-25T06:52:02.125Z,24.23
2022-08-25T06:57:05.846Z,23.02
2022-08-25T07:02:08.859Z,25.83
2022-08-25T07:07:11.369Z,25.33
2022-08-25T07:12:14.038Z,25.42
2022-08-25T07:17:17.130Z,24.90
2022-08-25T07:22:21.108Z,28.80
2022-08-25T07:27:23.718Z,25.08
2022-08-25T07:32:26.364Z,26.40
2022-08-25T07:37:47.552Z,23.93
2022-08-25T07:42:54.680Z,26.55
2022-08-25T07:48:21.792Z,23.23
2022-08-25T07:53:25.689Z,24.17
2022-08-25T07:58:29.056Z,30.35
2022-08-25T08:03:45.300Z,27.85
2022-08-25T08:08:57.753Z,28.20
2022-08-25T08:14:02.962Z,22.77
2022-08-25T08:19:06.192Z,31.07
2022-08-25T08:24:19.549Z,30.70
2022-08-25T08:29:32.665Z,27.00
2022-08-25T08:34:35.237Z,28.73
2022-08-25T08:39:39.009Z,27.77
2022-08-25T08:45:02.602Z,26.92
2022-08-25T08:50:11.396Z,32.17
2022-08-25T08:55:33.014Z,37.20
2022-08-25T09:00:40.905Z,33.75
2022-08-25T09:05:50.578Z,27.70
2022-08-25T09:11:27.596Z,26.67
2022-08-25T09:16:56.402Z,22.52
2022-08-25T09:22:01.834Z,24.35
2022-08-25T09:27:04.393Z,21.23
2022-08-25T09:32:07.644Z,24.33
2022-08-25T09:37:10.174Z,20.48
2022-08-25T09:42:12.789Z,25.53
2022-08-25T09:47:28.001Z,22.75
2022-08-25T09:52:38.125Z,25.02
2022-08-25T09:58:00.624Z,25.13
2022-08-25T10:03:24.847Z,18.92
2022-08-25T10:08:45.775Z,18.13
2022-08-25T10:13:51.804Z,16.67
2022-08-25T10:19:13.951Z,20.80
2022-08-25T10:24:18.882Z,22.95
2022-08-25T10:30:08.599Z,24.27
2022-08-25T10:35:50.306Z,24.50
2022-08-25T10:41:30.032Z,21.15
2022-08-25T10:46:54.276Z,20.85
2022-08-25T10:52:04.191Z,20.50
2022-08-25T10:57:27.201Z,19.05
2022-08-25T11:02:48.256Z,15.63
2022-08-25T11:08:11.634Z,16.33
2022-08-25T11:14:00.156Z,17.63
2022-08-25T11:19:27.605Z,16.58
2022-08-25T11:24:51.949Z,14.82
2022-08-25T11:30:07.957Z,16.20
2022-08-25T11:35:12.985Z,16.77
2022-08-25T11:40:38.690Z,17.25
2022-08-25T11:45:45.915Z,14.77
2022-08-25T11:51:41.065Z,17.85
2022-08-25T11:56:44.207Z,17.30
2022-08-25T12:01:57.050Z,13.57
2022-08-25T12:07:10.685Z,15.27
2022-08-25T12:12:43.518Z,11.88
2022-08-25T12:17:46.230Z,13.73
2022-08-25T12:22:58.744Z,11.70
2022-08-25T12:28:09.192Z,15.05
2022-08-25T12:33:33.839Z,12.43
2022-08-25T12:39:00.400Z,11.87
2022-08-25T12:44:40.358Z,13.30
2022-08-25T12:49:43.156Z,12.65
2022-08-25T12:55:07.188Z,10.63
2022-08-25T13:00:23.672Z,10.87
2022-08-25T13:05:46.386Z,15.70
2022-08-25T13:11:23.550Z,13.45
2022-08-25T13:16:29.624Z,11.77
2022-08-25T13:21:39.094Z,11.05
2022-08-25T13:26:48.202Z,10.13
2022-08-25T13:32:09.673Z,11.37
2022-08-25T13:37:29.526Z,14.48
2022-08-25T13:42:32.694Z,13.15
2022-08-25T13:47:43.711Z,12.77
2022-08-25T13:53:11.623Z,15.77
2022-08-25T13:58:24.912Z,14.43
2022-08-25T14:03:45.640Z,11.23
2022-08-25T14:09:00.324Z,15.90
2022-08-25T14:14:09.190Z,15.65
2022-08-25T14:19:20.390Z,19.10
2022-08-25T14:24:24.429Z,17.50
2022-08-25T14:29:27.045Z,14.90
2022-08-25T14:34:38.625Z,16.38
2022-08-25T14:39:42.630Z,16.73
2022-08-25T14:44:47.194Z,17.23
2022-08-25T14:49:50.326Z,16.35
2022-08-25T14:54:53.713Z,15.43
2022-08-25T14:59:56.747Z,16.60
2022-08-25T15:05:05.891Z,11.93
2022-08-25T15:10:13.663Z,14.80
2022-08-25T15:15:16.577Z,10.17
2022-08-25T15:20:22.844Z,12.70
2022-08-25T15:25:25.656Z,19.30
2022-08-25T15:30:30.873Z,14.23
2022-08-25T15:35:36.826Z,13.90
2022-08-25T15:40:39.644Z,15.57
2022-08-25T15:45:42.522Z,11.98
2022-08-25T15:50:45.164Z,12.07
2022-08-25T15:55:47.698Z,13.70
2022-08-25T16:00:57.185Z,13.60
2022-08-25T16:05:59.813Z,12.80
2022-08-25T16:11:02.344Z,16.25
2022-08-25T16:16:05.199Z,17.42
2022-08-25T16:21:13.173Z,17.07
2022-08-25T16:26:16.842Z,14.53
2022-08-25T16:31:20.889Z,16.02
2022-08-25T16:36:25.427Z,16.17
2022-08-25T16:41:34.331Z,18.93
2022-08-25T16:46:38.723Z,13.10
2022-08-25T16:51:43.665Z,13.35
2022-08-25T16:56:46.176Z,15.23
2022-08-25T17:01:49.009Z,11.77
2022-08-25T17:06:53.389Z,12.57
2022-08-25T17:11:57.379Z,14.07
2022-08-25T17:17:00.007Z,14.03
2022-08-25T17:22:03.339Z,13.02
2022-08-25T17:27:08.561Z,11.75
2022-08-25T17:32:11.122Z,19.30
2022-08-25T17:37:14.372Z,18.45
2022-08-25T17:42:16.860Z,14.23
2022-08-25T17:47:20.824Z,14.07
2022-08-25T17:52:28.265Z,21.08
2022-08-25T17:57:31.087Z,19.08
2022-08-25T18:02:33.609Z,15.90
2022-08-25T18:07:36.647Z,19.15
2022-08-25T18:12:39.630Z,15.85
2022-08-25T18:17:43.095Z,16.40
2022-08-25T18:22:47.848Z,21.03
2022-08-25T18:27:50.590Z,14.82
2022-08-25T18:32:53.143Z,11.52
2022-08-25T18:38:15.613Z,17.33
2022-08-25T18:43:18.316Z,14.23
2022-08-25T18:48:23.834Z,12.10
2022-08-25T18:53:49.626Z,17.97
2022-08-25T18:58:53.691Z,12.25
2022-08-25T19:03:56.594Z,17.33
2022-08-25T19:08:59.236Z,14.83
2022-08-25T19:14:03.169Z,24.02
2022-08-25T19:19:15.073Z,15.45
2022-08-25T19:24:18.341Z,14.60
2022-08-25T19:29:21.130Z,18.85
2022-08-25T19:34:30.250Z,14.57
2022-08-25T19:39:35.045Z,14.03
2022-08-25T19:44:37.814Z,14.18
2022-08-25T19:49:40.457Z,15.85
2022-08-25T19:54:46.282Z,14.93
2022-08-25T19:59:49.672Z,20.88
2022-08-25T20:04:56.811Z,16.33
2022-08-25T20:09:59.871Z,17.20
2022-08-25T20:15:02.927Z,19.17
2022-08-25T20:20:09.570Z,17.85
2022-08-25T20:25:20.750Z,20.57
2022-08-25T20:30:29.370Z,23.27
2022-08-25T20:35:31.931Z,17.98
2022-08-25T20:40:34.722Z,18.03
2022-08-25T20:45:39.794Z,15.82
2022-08-25T20:50:42.397Z,14.68
2022-08-25T20:55:45.015Z,18.20
2022-08-25T21:00:47.651Z,16.30
2022-08-25T21:05:53.918Z,13.85
2022-08-25T21:10:57.247Z,21.00
2022-08-25T21:16:05.680Z,17.48
2022-08-25T21:21:15.201Z,16.15
2022-08-25T21:26:25.275Z,18.33
2022-08-25T21:31:30.423Z,18.65
2022-08-25T21:36:33.474Z,17.15
2022-08-25T21:41:37.853Z,17.30
2022-08-25T21:46:40.935Z,14.60
2022-08-25T21:51:44.853Z,20.08
2022-08-25T21:56:50.364Z,16.37
2022-08-25T22:01:57.325Z,14.40
2022-08-25T22:07:01.127Z,16.95
2022-08-25T22:12:05.870Z,17.93
2022-08-25T22:17:12.353Z,21.08
2022-08-25T22:22:21.037Z,17.13
2022-08-25T22:27:23.776Z,16.70
2022-08-25T22:32:26.427Z,15.60
2022-08-25T22:37:30.376Z,17.97
2022-08-25T22:42:33.104Z,15.33
2022-08-25T22:47:35.774Z,14.98
2022-08-25T22:52:38.574Z,19.23
2022-08-25T22:57:45.104Z,18.17
2022-08-25T23:02:47.958Z,17.45
2022-08-25T23:07:50.639Z,19.60
2022-08-25T23:12:53.130Z,22.53
2022-08-25T23:17:55.805Z,16.55
2022-08-25T23:22:58.735Z,23.85
2022-08-25T23:28:01.348Z,18.73
2022-08-25T23:33:04.086Z,19.33
2022-08-25T23:38:06.748Z,19.65
2022-08-25T23:43:10.600Z,17.13
2022-08-25T23:48:13.271Z,18.55
2022-08-25T23:53:21.604Z,16.43
2022-08-25T23:58:24.642Z,16.70
